createdAt,value
2019-02-26T00:00:03.068Z,3.51
2019-02-26T00:02:30.501Z,3.51
2019-02-26T00:04:58.551Z,3.61
2019-02-26T00:07:28.124Z,3.62
2019-02-26T00:09:59.643Z,3.54
2019-02-26T00:12:28.778Z,3.56
2019-02-26T00:14:56.921Z,3.51
2019-02-26T00:17:24.563Z,3.53
2019-02-26T00:19:51.472Z,3.54
2019-02-26T00:22:18.398Z,3.48
2019-02-26T00:24:46.631Z,3.50
2019-02-26T00:27:13.754Z,3.55
2019-02-26T00:29:40.725Z,3.52
2019-02-26T00:32:10.090Z,3.46
2019-02-26T00:34:37.352Z,3.49
2019-02-26T00:37:06.296Z,3.49
2019-02-26T00:39:34.202Z,3.50
2019-02-26T00:42:02.738Z,3.42
2019-02-26T00:44:32.210Z,3.34
2019-02-26T00:46:59.746Z,3.38
2019-02-26T00:49:28.499Z,3.41
2019-02-26T00:51:56.371Z,3.29
2019-02-26T00:54:24.488Z,3.42
2019-02-26T00:56:52.095Z,3.21
2019-02-26T00:59:19.002Z,3.09
2019-02-26T01:01:48.038Z,3.08
2019-02-26T01:04:14.963Z,3.21
2019-02-26T01:06:41.906Z,3.19
2019-02-26T01:09:11.335Z,2.95
2019-02-26T01:11:38.355Z,2.93
2019-02-26T01:14:05.265Z,3.06
2019-02-26T01:16:32.203Z,2.89
2019-02-26T01:18:59.090Z,2.79
2019-02-26T01:21:28.467Z,2.88
2019-02-26T01:23:56.628Z,2.89
2019-02-26T01:26:27.293Z,2.64
2019-02-26T01:28:53.765Z,2.60
2019-02-26T01:31:22.410Z,2.62
2019-02-26T01:33:50.880Z,2.64
2019-02-26T01:36:21.458Z,2.64
2019-02-26T01:38:49.167Z,2.75
2019-02-26T01:41:17.964Z,2.79
2019-02-26T01:43:45.690Z,2.78
2019-02-26T01:46:14.504Z,2.76
2019-02-26T01:48:41.421Z,2.80
2019-02-26T01:51:08.592Z,2.84
2019-02-26T01:53:35.513Z,2.69
2019-02-26T01:56:04.630Z,2.60
2019-02-26T01:58:33.440Z,2.60
2019-02-26T02:01:00.191Z,2.42
2019-02-26T02:03:28.040Z,2.69
2019-02-26T02:05:55.948Z,2.76
2019-02-26T02:08:24.853Z,2.73
2019-02-26T02:10:56.277Z,2.53
2019-02-26T02:13:20.544Z,2.52
2019-02-26T02:15:47.453Z,2.51
2019-02-26T02:18:14.402Z,2.55
2019-02-26T02:20:41.299Z,2.58
2019-02-26T02:23:08.230Z,2.50
2019-02-26T02:25:36.157Z,2.41
2019-02-26T02:28:04.543Z,2.49
2019-02-26T02:30:35.405Z,2.26
2019-02-26T02:33:02.144Z,2.22
2019-02-26T02:35:29.152Z,2.19
2019-02-26T02:37:57.270Z,2.43
2019-02-26T02:40:24.850Z,2.46
2019-02-26T02:42:51.784Z,2.46
2019-02-26T02:45:21.113Z,2.30
2019-02-26T02:47:47.545Z,2.24
2019-02-26T02:50:15.076Z,2.13
2019-02-26T02:52:43.312Z,2.10
2019-02-26T02:55:12.975Z,1.94
2019-02-26T02:57:39.097Z,1.87
2019-02-26T03:00:08.650Z,1.88
2019-02-26T03:02:40.485Z,1.59
2019-02-26T03:05:04.922Z,1.92
2019-02-26T03:07:31.814Z,1.95
2019-02-26T03:10:03.930Z,1.96
2019-02-26T03:12:29.763Z,1.98
2019-02-26T03:14:58.888Z,2.01
2019-02-26T03:17:25.505Z,2.08
2019-02-26T03:19:52.481Z,2.17
2019-02-26T03:22:21.594Z,2.23
2019-02-26T03:24:51.000Z,2.49
2019-02-26T03:27:16.991Z,2.11
2019-02-26T03:29:45.042Z,2.06
2019-02-26T03:32:12.786Z,2.17
2019-02-26T03:34:39.734Z,2.26
2019-02-26T03:37:08.338Z,1.88
2019-02-26T03:39:35.449Z,1.84
2019-02-26T03:42:02.354Z,1.77
2019-02-26T03:44:30.295Z,1.74
2019-02-26T03:46:57.273Z,1.81
2019-02-26T03:49:27.090Z,1.86
2019-02-26T03:51:53.003Z,1.89
2019-02-26T03:54:19.962Z,1.80
2019-02-26T03:56:46.871Z,1.82
2019-02-26T03:59:13.875Z,1.69
2019-02-26T04:01:40.778Z,1.58
2019-02-26T04:04:07.828Z,1.54
2019-02-26T04:06:36.588Z,1.49
2019-02-26T04:09:04.694Z,1.54
2019-02-26T04:11:31.609Z,1.60
2019-02-26T04:13:58.522Z,1.83
2019-02-26T04:16:25.404Z,1.67
2019-02-26T04:18:52.307Z,1.47
2019-02-26T04:21:21.029Z,1.31
2019-02-26T04:23:49.114Z,1.44
2019-02-26T04:26:48.846Z,1.46
2019-02-26T04:29:40.777Z,1.49
2019-02-26T04:32:40.897Z,1.71
2019-02-26T04:35:16.225Z,1.30
2019-02-26T04:38:18.243Z,1.11
2019-02-26T04:41:10.238Z,1.10
2019-02-26T04:44:03.864Z,1.06
2019-02-26T04:47:00.190Z,1.04
2019-02-26T04:49:28.110Z,1.02
2019-02-26T04:51:55.614Z,1.11
2019-02-26T04:54:26.332Z,1.14
2019-02-26T04:56:51.375Z,1.24
2019-02-26T04:59:18.624Z,1.31
2019-02-26T05:01:47.250Z,1.31
2019-02-26T05:04:14.719Z,1.17
2019-02-26T05:06:41.675Z,1.09
2019-02-26T05:09:10.485Z,1.12
2019-02-26T05:11:40.552Z,1.10
2019-02-26T05:14:06.863Z,1.07
2019-02-26T05:16:37.048Z,1.13
2019-02-26T05:19:03.864Z,0.97
2019-02-26T05:21:33.256Z,0.96
2019-02-26T05:24:00.167Z,1.08
2019-02-26T05:26:27.232Z,1.11
2019-02-26T05:28:54.147Z,1.16
2019-02-26T05:31:21.080Z,1.17
2019-02-26T05:33:50.116Z,1.00
2019-02-26T05:36:17.276Z,0.89
2019-02-26T05:38:44.618Z,0.96
2019-02-26T05:41:11.558Z,1.01
2019-02-26T05:43:38.466Z,1.03
2019-02-26T05:46:05.426Z,1.10
2019-02-26T05:48:32.315Z,1.16
2019-02-26T05:51:00.881Z,1.18
2019-02-26T05:53:28.067Z,1.03
2019-02-26T05:55:56.028Z,0.74
2019-02-26T05:58:22.982Z,0.76
2019-02-26T06:00:49.929Z,0.68
2019-02-26T06:03:18.730Z,0.74
2019-02-26T06:05:46.614Z,0.95
2019-02-26T06:08:14.562Z,0.99
2019-02-26T06:10:41.500Z,1.12
2019-02-26T06:13:10.724Z,1.05
2019-02-26T06:15:37.230Z,0.96
2019-02-26T06:18:04.135Z,0.87
2019-02-26T06:20:32.212Z,0.80
2019-02-26T06:22:59.848Z,0.72
2019-02-26T06:25:26.807Z,0.82
2019-02-26T06:27:53.689Z,0.72
2019-02-26T06:30:21.205Z,0.85
2019-02-26T06:32:48.124Z,0.80
2019-02-26T06:35:16.479Z,0.68
2019-02-26T06:37:43.918Z,0.64
2019-02-26T06:40:11.736Z,0.68
2019-02-26T06:42:40.364Z,0.65
2019-02-26T06:45:10.845Z,0.71
2019-02-26T06:47:37.584Z,0.79
2019-02-26T06:50:07.549Z,0.80
2019-02-26T06:52:37.259Z,0.86
2019-02-26T06:55:05.921Z,0.72
2019-02-26T06:57:32.519Z,0.71
2019-02-26T07:00:01.178Z,0.84
2019-02-26T07:02:29.075Z,0.93
2019-02-26T07:04:56.143Z,0.68
2019-02-26T07:07:23.459Z,0.74
2019-02-26T07:09:50.458Z,0.83
2019-02-26T07:12:19.400Z,0.93
2019-02-26T07:14:48.201Z,1.08
2019-02-26T07:17:15.066Z,1.11
2019-02-26T07:19:41.980Z,0.94
2019-02-26T07:22:11.181Z,0.99
2019-02-26T07:24:38.571Z,1.09
2019-02-26T07:27:06.666Z,1.04
2019-02-26T07:29:37.451Z,1.17
2019-02-26T07:32:03.454Z,1.22
2019-02-26T07:34:30.353Z,1.26
2019-02-26T07:36:57.343Z,1.33
2019-02-26T07:39:24.235Z,1.48
2019-02-26T07:41:51.667Z,1.54
2019-02-26T07:44:23.150Z,1.64
2019-02-26T07:46:48.827Z,1.91
2019-02-26T07:49:15.739Z,2.08
2019-02-26T07:51:43.101Z,2.12
2019-02-26T07:54:10.156Z,2.29
2019-02-26T07:56:37.111Z,2.39
2019-02-26T07:59:07.102Z,2.50
2019-02-26T08:01:32.988Z,2.65
2019-02-26T08:03:59.891Z,2.94
2019-02-26T08:06:29.212Z,2.74
2019-02-26T08:08:55.666Z,2.80
2019-02-26T08:11:22.564Z,2.97
2019-02-26T08:13:51.602Z,3.11
2019-02-26T08:16:20.558Z,3.36
2019-02-26T08:18:47.407Z,3.73
2019-02-26T08:21:14.604Z,3.88
2019-02-26T08:23:43.499Z,4.08
2019-02-26T08:26:10.509Z,4.39
2019-02-26T08:28:39.006Z,4.66
2019-02-26T08:31:06.314Z,4.76
2019-02-26T08:33:33.265Z,4.72
2019-02-26T08:36:00.272Z,4.69
2019-02-26T08:38:30.079Z,5.04
2019-02-26T08:40:56.033Z,5.16
2019-02-26T08:43:22.979Z,5.29
2019-02-26T08:45:49.895Z,5.44
2019-02-26T08:48:17.246Z,5.17
2019-02-26T08:50:46.308Z,5.17
2019-02-26T08:53:13.482Z,5.38
2019-02-26T08:55:40.374Z,5.38
2019-02-26T08:58:07.694Z,5.45
2019-02-26T09:00:36.134Z,5.65
2019-02-26T09:03:03.091Z,5.79
2019-02-26T09:05:33.976Z,5.73
2019-02-26T09:07:58.818Z,5.82
2019-02-26T09:10:25.738Z,6.04
2019-02-26T09:12:52.811Z,6.19
2019-02-26T09:15:19.713Z,6.37
2019-02-26T09:17:46.667Z,6.49
2019-02-26T09:20:14.742Z,6.69
2019-02-26T09:22:45.653Z,7.16
2019-02-26T09:25:11.216Z,7.26
2019-02-26T09:30:16.224Z,7.44
2019-02-26T09:35:26.904Z,7.99
2019-02-26T09:37:53.312Z,7.83
2019-02-26T09:40:23.098Z,7.99
2019-02-26T09:42:51.707Z,8.08
2019-02-26T09:45:20.397Z,8.11
2019-02-26T09:47:47.874Z,8.37
2019-02-26T09:50:17.572Z,8.50
2019-02-26T09:52:45.197Z,8.44
2019-02-26T09:55:13.281Z,8.89
2019-02-26T09:57:40.196Z,8.94
2019-02-26T10:00:14.503Z,8.82
2019-02-26T10:02:42.500Z,9.12
2019-02-26T10:05:11.661Z,9.15
2019-02-26T10:07:39.685Z,9.25
2019-02-26T10:10:11.504Z,9.32
2019-02-26T10:12:39.354Z,9.46
2019-02-26T10:15:07.254Z,9.54
2019-02-26T10:17:35.662Z,9.75
2019-02-26T10:20:07.703Z,9.96
2019-02-26T10:22:36.189Z,10.23
2019-02-26T10:25:04.039Z,10.35
2019-02-26T10:27:33.698Z,10.28
2019-02-26T10:30:02.123Z,10.48
2019-02-26T10:32:28.760Z,10.67
2019-02-26T10:34:55.720Z,10.74
2019-02-26T10:37:23.578Z,10.73
2019-02-26T10:39:52.217Z,11.11
2019-02-26T10:42:19.362Z,11.16
2019-02-26T10:44:46.303Z,11.62
2019-02-26T10:47:13.212Z,11.48
2019-02-26T10:49:40.154Z,11.68
2019-02-26T10:52:07.094Z,11.75
2019-02-26T10:54:37.513Z,11.88
2019-02-26T10:57:06.425Z,12.28
2019-02-26T10:59:31.760Z,12.43
2019-02-26T11:02:00.765Z,12.57
2019-02-26T11:04:34.402Z,12.73
2019-02-26T11:06:56.567Z,12.88
2019-02-26T11:09:26.419Z,13.04
2019-02-26T11:11:52.436Z,13.17
2019-02-26T11:14:19.544Z,13.49
2019-02-26T11:16:46.514Z,13.60
2019-02-26T11:19:13.415Z,13.69
2019-02-26T11:21:40.770Z,13.68
2019-02-26T11:24:08.790Z,14.01
2019-02-26T11:26:38.293Z,14.13
2019-02-26T11:29:05.367Z,14.07
2019-02-26T11:31:32.308Z,14.07
2019-02-26T11:34:00.871Z,14.27
2019-02-26T11:36:30.365Z,14.48
2019-02-26T11:38:59.912Z,14.46
2019-02-26T11:41:28.741Z,14.85
2019-02-26T11:43:55.329Z,15.17
2019-02-26T11:46:24.418Z,15.01
2019-02-26T11:48:52.562Z,15.08
2019-02-26T11:51:20.080Z,15.33
2019-02-26T11:53:47.294Z,15.30
2019-02-26T11:56:15.865Z,15.40
2019-02-26T11:58:43.119Z,15.22
2019-02-26T12:01:12.203Z,15.69
2019-02-26T12:03:41.315Z,15.25
2019-02-26T12:06:08.251Z,15.66
2019-02-26T12:08:37.166Z,15.97
2019-02-26T12:11:06.601Z,15.75
2019-02-26T12:13:32.958Z,15.42
2019-02-26T12:15:59.879Z,15.87
2019-02-26T12:18:26.812Z,15.88
2019-02-26T12:20:53.757Z,16.27
2019-02-26T12:23:22.730Z,16.22
2019-02-26T12:25:52.568Z,15.97
2019-02-26T12:28:18.663Z,15.86
2019-02-26T12:30:46.723Z,15.94
2019-02-26T12:33:14.787Z,16.44
2019-02-26T12:35:43.658Z,16.29
2019-02-26T12:38:18.170Z,15.98
2019-02-26T12:40:41.144Z,16.13
2019-02-26T12:43:11.602Z,16.24
2019-02-26T12:45:38.759Z,16.56
2019-02-26T12:48:07.142Z,16.53
2019-02-26T12:50:36.650Z,16.70
2019-02-26T12:53:03.924Z,16.61
2019-02-26T12:55:32.931Z,16.80
2019-02-26T12:57:59.802Z,16.79
2019-02-26T13:00:26.740Z,16.42
2019-02-26T13:02:53.845Z,16.35
2019-02-26T13:05:22.992Z,16.20
2019-02-26T13:07:49.648Z,16.17
2019-02-26T13:10:18.114Z,16.43
2019-02-26T13:12:49.467Z,17.38
2019-02-26T13:15:19.050Z,17.34
2019-02-26T13:17:45.253Z,17.29
2019-02-26T13:20:14.819Z,17.92
2019-02-26T13:22:45.769Z,17.84
2019-02-26T13:25:15.553Z,17.69
2019-02-26T13:27:43.655Z,17.52
2019-02-26T13:30:11.163Z,17.13
2019-02-26T13:32:55.405Z,17.16
2019-02-26T13:35:08.082Z,17.60
2019-02-26T13:37:36.606Z,18.20
2019-02-26T13:40:06.518Z,18.11
2019-02-26T13:42:33.593Z,18.18
2019-02-26T13:45:00.519Z,18.87
2019-02-26T13:47:27.483Z,18.33
2019-02-26T13:49:54.414Z,17.66
2019-02-26T13:52:21.467Z,17.67
2019-02-26T13:54:48.397Z,17.34
2019-02-26T13:57:15.363Z,17.47
2019-02-26T13:59:42.283Z,18.37
2019-02-26T14:02:09.224Z,18.46
2019-02-26T14:04:39.004Z,18.63
2019-02-26T14:07:06.033Z,19.26
2019-02-26T14:09:33.135Z,19.13
2019-02-26T14:12:00.076Z,19.07
2019-02-26T14:14:27.266Z,18.80
2019-02-26T14:16:54.199Z,18.48
2019-02-26T14:19:21.209Z,18.80
2019-02-26T14:21:48.158Z,18.91
2019-02-26T14:24:15.133Z,18.82
2019-02-26T14:26:42.048Z,19.23
2019-02-26T14:29:09.032Z,19.24
2019-02-26T14:31:35.940Z,18.25
2019-02-26T14:34:03.012Z,18.01
2019-02-26T14:36:29.928Z,18.04
2019-02-26T14:38:56.881Z,18.38
2019-02-26T14:41:23.977Z,18.80
2019-02-26T14:43:51.000Z,18.67
2019-02-26T14:46:17.912Z,18.24
2019-02-26T14:48:44.857Z,18.19
2019-02-26T14:51:11.775Z,17.84
2019-02-26T14:53:38.721Z,18.29
2019-02-26T14:56:05.651Z,18.61
2019-02-26T14:58:32.611Z,18.19
2019-02-26T15:01:00.437Z,17.75
2019-02-26T15:03:27.686Z,17.71
2019-02-26T15:05:54.677Z,18.28
2019-02-26T15:08:22.044Z,17.81
2019-02-26T15:10:48.965Z,17.86
2019-02-26T15:13:15.929Z,17.80
2019-02-26T15:15:42.842Z,17.52
2019-02-26T15:18:09.756Z,17.27
2019-02-26T15:20:36.700Z,17.41
2019-02-26T15:23:04.336Z,17.83
2019-02-26T15:25:31.275Z,17.65
2019-02-26T15:28:04.521Z,17.57
2019-02-26T15:30:27.603Z,17.86
2019-02-26T15:32:54.541Z,17.69
2019-02-26T15:35:21.770Z,17.25
2019-02-26T15:37:48.714Z,17.19
2019-02-26T15:40:16.014Z,17.06
2019-02-26T15:42:42.935Z,16.84
2019-02-26T15:45:14.995Z,16.71
2019-02-26T15:47:41.919Z,16.90
2019-02-26T15:50:10.226Z,16.82
2019-02-26T15:52:37.137Z,16.72
2019-02-26T15:55:05.349Z,16.82
2019-02-26T15:57:32.590Z,16.82
2019-02-26T15:59:59.606Z,16.71
2019-02-26T16:02:28.568Z,16.62
2019-02-26T16:04:55.827Z,16.59
2019-02-26T16:07:22.740Z,16.78
2019-02-26T16:09:49.699Z,16.93
2019-02-26T16:12:16.626Z,16.99
2019-02-26T16:14:43.609Z,16.86
2019-02-26T16:17:10.543Z,16.89
2019-02-26T16:19:37.508Z,16.48
2019-02-26T16:22:04.435Z,16.31
2019-02-26T16:24:31.388Z,16.15
2019-02-26T16:26:58.365Z,15.91
2019-02-26T16:29:25.347Z,15.68
2019-02-26T16:31:52.269Z,15.57
2019-02-26T16:34:19.916Z,15.37
2019-02-26T16:36:47.524Z,15.16
2019-02-26T16:39:14.445Z,15.04
2019-02-26T16:41:41.384Z,15.10
2019-02-26T16:44:08.589Z,15.05
2019-02-26T16:46:35.636Z,14.73
2019-02-26T16:49:03.002Z,14.40
2019-02-26T16:51:29.909Z,14.09
2019-02-26T16:53:56.929Z,13.85
2019-02-26T16:56:23.871Z,13.64
2019-02-26T16:58:51.187Z,13.43
2019-02-26T17:01:19.693Z,13.30
2019-02-26T17:03:47.007Z,13.17
2019-02-26T17:06:13.949Z,13.09
2019-02-26T17:08:40.863Z,12.90
2019-02-26T17:11:08.023Z,12.72
2019-02-26T17:13:35.136Z,12.71
2019-02-26T17:16:02.210Z,12.55
2019-02-26T17:18:29.199Z,12.37
2019-02-26T17:20:56.958Z,12.25
2019-02-26T17:23:24.441Z,11.99
2019-02-26T17:25:51.397Z,11.80
2019-02-26T17:28:18.611Z,11.70
2019-02-26T17:30:45.576Z,11.64
2019-02-26T17:33:14.564Z,11.68
2019-02-26T17:35:41.348Z,11.64
2019-02-26T17:38:08.260Z,11.46
2019-02-26T17:40:36.727Z,11.24
2019-02-26T17:43:04.105Z,11.01
2019-02-26T17:45:31.070Z,10.83
2019-02-26T17:47:58.021Z,10.70
2019-02-26T17:50:27.772Z,10.47
2019-02-26T17:52:54.736Z,10.47
2019-02-26T17:55:22.001Z,10.47
2019-02-26T17:57:49.108Z,10.46
2019-02-26T18:00:18.331Z,10.37
2019-02-26T18:02:45.270Z,10.31
2019-02-26T18:05:12.302Z,10.12
2019-02-26T18:07:39.403Z,9.97
2019-02-26T18:10:12.735Z,9.79
2019-02-26T18:12:42.309Z,9.78
2019-02-26T18:15:07.546Z,9.70
2019-02-26T18:17:34.561Z,9.74
2019-02-26T18:20:01.667Z,9.65
2019-02-26T18:22:28.613Z,9.51
2019-02-26T18:24:55.566Z,9.40
2019-02-26T18:27:22.506Z,9.39
2019-02-26T18:29:49.427Z,9.27
2019-02-26T18:32:16.386Z,9.15
2019-02-26T18:34:43.315Z,9.13
2019-02-26T18:37:10.263Z,9.13
2019-02-26T18:39:37.171Z,9.02
2019-02-26T18:42:07.608Z,8.73
2019-02-26T18:44:32.942Z,8.76
2019-02-26T18:46:59.893Z,8.77
2019-02-26T18:49:26.797Z,8.76
2019-02-26T18:51:53.759Z,8.75
2019-02-26T18:54:21.120Z,8.72
2019-02-26T18:56:48.301Z,8.57
2019-02-26T18:59:15.222Z,8.44
2019-02-26T19:01:42.164Z,8.34
2019-02-26T19:04:09.086Z,8.41
2019-02-26T19:06:36.028Z,8.39
2019-02-26T19:09:04.546Z,8.33
2019-02-26T19:11:31.487Z,8.21
2019-02-26T19:13:58.440Z,8.10
2019-02-26T19:16:25.411Z,7.98
2019-02-26T19:18:52.333Z,7.98
2019-02-26T19:21:21.588Z,8.04
2019-02-26T19:23:48.090Z,7.91
2019-02-26T19:26:15.122Z,7.88
2019-02-26T19:28:42.098Z,7.79
2019-02-26T19:31:09.817Z,7.57
2019-02-26T19:33:37.802Z,7.52
2019-02-26T19:36:04.786Z,7.45
2019-02-26T19:38:31.730Z,7.45
2019-02-26T19:41:00.987Z,7.40
2019-02-26T19:43:28.877Z,7.31
2019-02-26T19:45:56.005Z,7.29
2019-02-26T19:48:22.951Z,7.22
2019-02-26T19:50:49.956Z,7.20
2019-02-26T19:53:16.946Z,7.13
2019-02-26T19:55:43.986Z,7.07
2019-02-26T19:58:11.036Z,6.93
2019-02-26T20:00:38.048Z,6.86
2019-02-26T20:03:06.057Z,6.66
2019-02-26T20:05:33.072Z,6.65
2019-02-26T20:08:04.856Z,6.70
2019-02-26T20:10:29.157Z,6.74
2019-02-26T20:12:56.304Z,6.77
2019-02-26T20:15:23.226Z,6.65
2019-02-26T20:17:50.205Z,6.59
2019-02-26T20:20:17.195Z,6.47
2019-02-26T20:22:44.211Z,6.42
2019-02-26T20:25:12.770Z,6.26
2019-02-26T20:27:39.902Z,6.17
2019-02-26T20:30:09.620Z,6.26
2019-02-26T20:32:36.744Z,6.19
2019-02-26T20:35:03.911Z,6.04
2019-02-26T20:37:30.883Z,6.00
2019-02-26T20:39:57.777Z,6.09
2019-02-26T20:42:26.769Z,6.05
2019-02-26T20:44:58.911Z,5.96
2019-02-26T20:47:23.365Z,5.95
2019-02-26T20:49:50.269Z,5.81
2019-02-26T20:52:17.192Z,5.80
2019-02-26T20:54:45.028Z,5.60
2019-02-26T20:57:11.991Z,5.66
2019-02-26T20:59:40.407Z,5.63
2019-02-26T21:02:07.643Z,5.41
2019-02-26T21:04:34.685Z,5.56
2019-02-26T21:07:01.631Z,5.52
2019-02-26T21:09:29.141Z,5.59
2019-02-26T21:11:56.375Z,5.51
2019-02-26T21:14:23.340Z,5.48
2019-02-26T21:16:53.450Z,5.47
2019-02-26T21:19:19.294Z,5.32
2019-02-26T21:21:48.855Z,5.65
2019-02-26T21:24:15.106Z,5.68
2019-02-26T21:26:42.072Z,5.59
2019-02-26T21:29:09.066Z,5.36
2019-02-26T21:31:36.004Z,5.33
2019-02-26T21:34:03.984Z,5.14
2019-02-26T21:36:31.382Z,5.06
2019-02-26T21:38:58.327Z,5.13
2019-02-26T21:41:25.750Z,5.14
2019-02-26T21:43:52.772Z,5.17
2019-02-26T21:46:22.548Z,5.15
2019-02-26T21:48:48.580Z,5.19
2019-02-26T21:51:15.486Z,5.13
2019-02-26T21:53:42.498Z,5.10
2019-02-26T21:56:09.406Z,4.98
2019-02-26T21:58:36.352Z,4.96
2019-02-26T22:01:03.259Z,4.92
2019-02-26T22:03:30.208Z,4.91
2019-02-26T22:06:05.010Z,4.79
2019-02-26T22:08:26.491Z,4.72
2019-02-26T22:10:53.445Z,4.72
2019-02-26T22:13:20.376Z,4.60
2019-02-26T22:15:47.278Z,4.57
2019-02-26T22:18:14.234Z,4.56
2019-02-26T22:20:41.234Z,4.53
2019-02-26T22:23:08.443Z,4.53
2019-02-26T22:25:35.416Z,4.51
2019-02-26T22:28:02.326Z,4.49
2019-02-26T22:30:29.302Z,4.57
2019-02-26T22:32:56.202Z,4.53
2019-02-26T22:35:25.597Z,4.18
2019-02-26T22:37:51.938Z,4.11
2019-02-26T22:40:18.879Z,4.10
2019-02-26T22:42:45.797Z,4.11
2019-02-26T22:45:12.843Z,4.05
2019-02-26T22:47:40.586Z,3.99
2019-02-26T22:50:09.613Z,3.93
2019-02-26T22:52:36.515Z,3.93
2019-02-26T22:55:04.231Z,3.99
2019-02-26T22:57:31.155Z,3.99
2019-02-26T22:59:58.421Z,4.00
2019-02-26T23:02:26.259Z,3.95
2019-02-26T23:04:53.351Z,3.87
2019-02-26T23:07:20.573Z,3.81
2019-02-26T23:09:52.168Z,3.71
2019-02-26T23:12:16.442Z,3.52
2019-02-26T23:14:43.406Z,3.44
2019-02-26T23:17:10.320Z,3.42
2019-02-26T23:19:39.329Z,3.41
2019-02-26T23:22:06.068Z,3.41
2019-02-26T23:24:33.533Z,3.43
2019-02-26T23:27:00.647Z,3.43
2019-02-26T23:29:28.524Z,3.35
2019-02-26T23:31:56.278Z,3.38
2019-02-26T23:34:23.213Z,3.31
2019-02-26T23:36:50.120Z,3.31
2019-02-26T23:39:17.758Z,3.26
2019-02-26T23:41:44.688Z,3.23
2019-02-26T23:44:12.120Z,3.33
2019-02-26T23:46:39.029Z,3.34
2019-02-26T23:49:05.967Z,3.31
2019-02-26T23:51:32.873Z,3.27
2019-02-26T23:53:59.844Z,3.23
2019-02-26T23:56:26.739Z,3.11
2019-02-26T23:58:53.655Z,3.05
